createdAt,value
2022-11-29T00:01:55.288Z,7.25
2022-11-29T00:04:21.468Z,7.26
2022-11-29T00:06:47.641Z,7.28
2022-11-29T00:09:13.808Z,7.28
2022-11-29T00:11:39.957Z,7.30
2022-11-29T00:14:06.129Z,7.31
2022-11-29T00:16:32.294Z,7.29
2022-11-29T00:18:58.433Z,7.29
2022-11-29T00:21:24.561Z,7.26
2022-11-29T00:23:50.789Z,7.27
2022-11-29T00:26:16.970Z,7.26
2022-11-29T00:28:43.288Z,7.25
2022-11-29T00:31:11.556Z,7.31
2022-11-29T00:33:37.728Z,7.28
2022-11-29T00:36:03.885Z,7.23
2022-11-29T00:38:30.083Z,7.29
2022-11-29T00:40:56.211Z,7.39
2022-11-29T00:43:22.412Z,7.30
2022-11-29T00:45:48.693Z,7.28
2022-11-29T00:48:15.009Z,7.26
2022-11-29T00:50:41.152Z,7.25
2022-11-29T00:53:07.353Z,7.23
2022-11-29T00:55:33.574Z,7.24
2022-11-29T00:57:59.734Z,7.22
2022-11-29T01:00:28.199Z,7.23
2022-11-29T01:02:54.337Z,7.23
2022-11-29T01:05:20.511Z,7.23
2022-11-29T01:07:46.715Z,7.23
2022-11-29T01:10:12.880Z,7.27
2022-11-29T01:12:39.093Z,7.28
2022-11-29T01:15:05.437Z,7.28
2022-11-29T01:17:31.591Z,7.25
2022-11-29T01:19:57.753Z,7.26
2022-11-29T01:22:23.940Z,7.25
2022-11-29T01:24:50.135Z,7.26
2022-11-29T01:27:16.265Z,7.26
2022-11-29T01:29:42.400Z,7.28
2022-11-29T01:32:08.602Z,7.29
2022-11-29T01:34:34.875Z,7.28
2022-11-29T01:37:01.017Z,7.24
2022-11-29T01:39:27.209Z,7.26
2022-11-29T01:41:53.345Z,7.29
2022-11-29T01:44:19.478Z,7.26
2022-11-29T01:46:45.623Z,7.31
2022-11-29T01:49:11.762Z,7.31
2022-11-29T01:51:37.924Z,7.31
2022-11-29T01:54:04.317Z,7.29
2022-11-29T01:56:30.447Z,7.29
2022-11-29T01:58:56.617Z,7.25
2022-11-29T02:01:22.797Z,7.23
2022-11-29T02:03:49.008Z,7.24
2022-11-29T02:06:15.223Z,7.29
2022-11-29T02:08:41.349Z,7.28
2022-11-29T02:11:07.519Z,7.24
2022-11-29T02:13:33.728Z,7.27
2022-11-29T02:15:59.920Z,7.26
2022-11-29T02:18:26.127Z,7.22
2022-11-29T02:20:52.292Z,7.23
2022-11-29T02:23:18.565Z,7.25
2022-11-29T02:25:44.745Z,7.24
2022-11-29T02:28:10.875Z,7.23
2022-11-29T02:30:37.072Z,7.26
2022-11-29T02:33:03.331Z,7.26
2022-11-29T02:35:29.938Z,7.29
2022-11-29T02:37:56.092Z,7.31
2022-11-29T02:40:22.287Z,7.29
2022-11-29T02:42:52.585Z,7.29
2022-11-29T02:45:22.473Z,7.30
2022-11-29T02:47:48.623Z,7.25
2022-11-29T02:50:14.780Z,7.27
2022-11-29T02:52:40.920Z,7.29
2022-11-29T02:55:07.044Z,7.29
2022-11-29T02:57:33.204Z,7.29
2022-11-29T02:59:59.372Z,7.30
2022-11-29T03:02:25.591Z,7.32
2022-11-29T03:04:51.865Z,7.31
2022-11-29T03:07:18.085Z,7.29
2022-11-29T03:09:45.459Z,7.31
2022-11-29T03:12:11.669Z,7.30
2022-11-29T03:14:37.832Z,7.33
2022-11-29T03:17:03.998Z,7.34
2022-11-29T03:19:30.123Z,7.34
2022-11-29T03:21:56.322Z,7.36
2022-11-29T03:24:22.474Z,7.37
2022-11-29T03:26:48.691Z,7.38
2022-11-29T03:29:14.983Z,7.38
2022-11-29T03:31:41.297Z,7.40
2022-11-29T03:34:07.509Z,7.39
2022-11-29T03:36:33.738Z,7.38
2022-11-29T03:38:59.940Z,7.39
2022-11-29T03:41:26.146Z,7.40
2022-11-29T03:43:52.327Z,7.42
2022-11-29T03:46:18.550Z,7.41
2022-11-29T03:48:44.730Z,7.43
2022-11-29T03:51:10.907Z,7.43
2022-11-29T03:53:37.139Z,7.42
2022-11-29T03:56:03.438Z,7.43
2022-11-29T03:58:29.596Z,7.46
2022-11-29T04:00:55.802Z,7.47
2022-11-29T04:03:22.041Z,7.46
2022-11-29T04:05:48.209Z,7.48
2022-11-29T04:08:14.414Z,7.47
2022-11-29T04:10:40.717Z,7.49
2022-11-29T04:13:06.939Z,7.49
2022-11-29T04:15:33.122Z,7.47
2022-11-29T04:17:59.301Z,7.48
2022-11-29T04:20:26.485Z,7.50
2022-11-29T04:22:52.669Z,7.50
2022-11-29T04:25:18.843Z,7.48
2022-11-29T04:27:45.012Z,7.48
2022-11-29T04:30:11.237Z,7.47
2022-11-29T04:32:37.366Z,7.49
2022-11-29T04:35:03.547Z,7.50
2022-11-29T04:37:29.695Z,7.50
2022-11-29T04:39:55.846Z,7.50
2022-11-29T04:42:21.997Z,7.48
2022-11-29T04:44:48.194Z,7.48
2022-11-29T04:47:14.344Z,7.49
2022-11-29T04:49:40.501Z,7.47
2022-11-29T04:52:06.700Z,7.49
2022-11-29T04:54:32.858Z,7.49
2022-11-29T04:56:59.003Z,7.50
2022-11-29T04:59:25.271Z,7.50
2022-11-29T05:01:51.520Z,7.51
2022-11-29T05:04:17.689Z,7.50
2022-11-29T05:06:43.914Z,7.50
2022-11-29T05:09:10.078Z,7.49
2022-11-29T05:11:36.278Z,7.50
2022-11-29T05:14:02.419Z,7.51
2022-11-29T05:16:28.618Z,7.50
2022-11-29T05:18:55.550Z,7.50
2022-11-29T05:21:21.832Z,7.52
2022-11-29T05:23:48.024Z,7.52
2022-11-29T05:26:14.227Z,7.56
2022-11-29T05:28:40.401Z,7.53
2022-11-29T05:31:06.753Z,7.51
2022-11-29T05:33:32.939Z,7.54
2022-11-29T05:35:59.091Z,7.53
2022-11-29T05:38:25.271Z,7.55
2022-11-29T05:40:51.443Z,7.55
2022-11-29T05:43:17.613Z,7.53
2022-11-29T05:45:46.496Z,7.52
2022-11-29T05:48:12.675Z,7.52
2022-11-29T05:50:38.847Z,7.57
2022-11-29T05:53:05.030Z,7.55
2022-11-29T05:55:31.207Z,7.51
2022-11-29T05:57:57.346Z,7.52
2022-11-29T06:00:23.501Z,7.54
2022-11-29T06:02:49.722Z,7.53
2022-11-29T06:05:15.870Z,7.51
2022-11-29T06:07:42.076Z,7.49
2022-11-29T06:10:08.468Z,7.48
2022-11-29T06:12:34.632Z,7.47
2022-11-29T06:15:00.806Z,7.48
2022-11-29T06:17:26.976Z,7.48
2022-11-29T06:19:53.118Z,7.48
2022-11-29T06:22:19.277Z,7.50
2022-11-29T06:24:45.690Z,7.49
2022-11-29T06:27:11.983Z,7.46
2022-11-29T06:29:38.163Z,7.44
2022-11-29T06:32:04.315Z,7.43
2022-11-29T06:34:30.980Z,7.41
2022-11-29T06:36:57.256Z,7.41
2022-11-29T06:39:23.391Z,7.41
2022-11-29T06:41:49.583Z,7.40
2022-11-29T06:44:15.705Z,7.41
2022-11-29T06:46:41.926Z,7.42
2022-11-29T06:49:08.128Z,7.43
2022-11-29T06:51:34.251Z,7.42
2022-11-29T06:54:00.411Z,7.47
2022-11-29T06:56:26.578Z,7.46
2022-11-29T06:58:52.763Z,7.46
2022-11-29T07:01:18.994Z,7.45
2022-11-29T07:03:45.163Z,7.47
2022-11-29T07:06:18.732Z,7.49
2022-11-29T07:08:44.854Z,7.49
2022-11-29T07:11:10.994Z,7.53
2022-11-29T07:13:37.160Z,7.53
2022-11-29T07:16:03.391Z,7.52
2022-11-29T07:18:29.636Z,7.54
2022-11-29T07:20:55.788Z,7.51
2022-11-29T07:23:21.968Z,7.50
2022-11-29T07:25:48.145Z,7.56
2022-11-29T07:28:14.302Z,7.55
2022-11-29T07:30:40.474Z,7.55
2022-11-29T07:33:06.638Z,7.54
2022-11-29T07:35:32.802Z,7.60
2022-11-29T07:37:58.996Z,7.60
2022-11-29T07:40:25.223Z,7.56
2022-11-29T07:42:51.396Z,7.59
2022-11-29T07:45:17.618Z,7.59
2022-11-29T07:47:43.765Z,7.58
2022-11-29T07:50:09.880Z,7.60
2022-11-29T07:52:36.075Z,7.61
2022-11-29T07:55:02.251Z,7.65
2022-11-29T07:57:28.417Z,7.70
2022-11-29T07:59:54.688Z,7.66
2022-11-29T08:02:20.962Z,7.66
2022-11-29T08:04:47.480Z,7.70
2022-11-29T08:07:19.434Z,7.71
2022-11-29T08:09:45.895Z,7.71
2022-11-29T08:12:12.220Z,7.79
2022-11-29T08:14:38.452Z,7.82
2022-11-29T08:17:04.650Z,7.79
2022-11-29T08:19:30.774Z,7.79
2022-11-29T08:21:56.947Z,7.83
2022-11-29T08:24:23.138Z,7.90
2022-11-29T08:26:49.332Z,7.97
2022-11-29T08:29:15.565Z,7.95
2022-11-29T08:31:41.813Z,7.98
2022-11-29T08:34:08.025Z,7.96
2022-11-29T08:36:37.360Z,7.97
2022-11-29T08:39:08.861Z,8.07
2022-11-29T08:41:36.618Z,8.11
2022-11-29T08:44:02.788Z,8.12
2022-11-29T08:46:28.949Z,8.09
2022-11-29T08:48:55.092Z,8.16
2022-11-29T08:51:21.234Z,8.19
2022-11-29T08:53:47.466Z,8.17
2022-11-29T08:56:59.594Z,8.17
2022-11-29T08:58:59.818Z,8.24
2022-11-29T09:01:26.093Z,8.27
2022-11-29T09:03:52.234Z,8.30
2022-11-29T09:06:18.371Z,8.36
2022-11-29T09:08:44.564Z,8.44
2022-11-29T09:11:10.717Z,8.52
2022-11-29T09:13:36.916Z,8.55
2022-11-29T09:16:03.074Z,8.57
2022-11-29T09:18:29.212Z,8.58
2022-11-29T09:20:55.361Z,8.51
2022-11-29T09:23:21.527Z,8.58
2022-11-29T09:25:47.669Z,8.52
2022-11-29T09:28:13.855Z,8.64
2022-11-29T09:30:40.249Z,8.67
2022-11-29T09:33:06.440Z,8.69
2022-11-29T09:35:32.600Z,8.63
2022-11-29T09:37:59.940Z,8.63
2022-11-29T09:40:26.093Z,8.71
2022-11-29T09:42:52.218Z,8.71
2022-11-29T09:45:18.333Z,8.65
2022-11-29T09:47:44.526Z,8.60
2022-11-29T09:50:10.716Z,8.51
2022-11-29T09:52:36.890Z,8.44
2022-11-29T09:55:03.076Z,8.48
2022-11-29T09:57:29.443Z,8.45
2022-11-29T09:59:55.649Z,8.42
2022-11-29T10:02:22.751Z,8.40
2022-11-29T10:04:49.011Z,8.50
2022-11-29T10:07:15.321Z,8.56
2022-11-29T10:09:41.737Z,8.62
2022-11-29T10:12:07.952Z,8.63
2022-11-29T10:14:34.201Z,8.69
2022-11-29T10:17:00.505Z,8.79
2022-11-29T10:19:26.714Z,8.88
2022-11-29T10:21:52.957Z,8.85
2022-11-29T10:24:19.562Z,8.89
2022-11-29T10:26:45.812Z,8.86
2022-11-29T10:29:12.084Z,8.94
2022-11-29T10:31:38.250Z,8.90
2022-11-29T10:34:09.855Z,8.98
2022-11-29T10:36:36.102Z,9.00
2022-11-29T10:39:02.493Z,9.03
2022-11-29T10:41:28.724Z,9.12
2022-11-29T10:43:55.033Z,9.09
2022-11-29T10:46:21.257Z,9.11
2022-11-29T10:48:47.448Z,9.07
2022-11-29T10:51:14.723Z,9.17
2022-11-29T10:53:41.064Z,9.06
2022-11-29T10:56:07.269Z,9.01
2022-11-29T10:58:33.639Z,8.97
2022-11-29T11:00:59.964Z,9.08
2022-11-29T11:03:26.324Z,9.19
2022-11-29T11:05:52.517Z,9.14
2022-11-29T11:08:18.746Z,9.15
2022-11-29T11:10:48.218Z,9.15
2022-11-29T11:13:18.662Z,9.18
2022-11-29T11:15:44.878Z,9.25
2022-11-29T11:18:11.067Z,9.12
2022-11-29T11:20:37.336Z,9.14
2022-11-29T11:23:03.568Z,9.16
2022-11-29T11:25:29.706Z,9.16
2022-11-29T11:27:55.982Z,9.15
2022-11-29T11:30:22.174Z,9.18
2022-11-29T11:32:48.377Z,9.10
2022-11-29T11:35:18.414Z,9.11
2022-11-29T11:37:44.845Z,9.05
2022-11-29T11:40:11.057Z,9.14
2022-11-29T11:42:37.284Z,9.13
2022-11-29T11:45:03.707Z,9.11
2022-11-29T11:47:30.299Z,9.08
2022-11-29T11:49:56.680Z,9.15
2022-11-29T11:52:22.892Z,9.16
2022-11-29T11:54:49.017Z,9.11
2022-11-29T11:57:15.287Z,9.15
2022-11-29T11:59:41.438Z,9.15
2022-11-29T12:02:07.637Z,9.24
2022-11-29T12:04:33.867Z,9.25
2022-11-29T12:07:00.206Z,9.24
2022-11-29T12:09:26.412Z,9.33
2022-11-29T12:11:52.787Z,9.36
2022-11-29T12:14:19.040Z,9.35
2022-11-29T12:16:45.436Z,9.30
2022-11-29T12:19:11.640Z,9.34
2022-11-29T12:21:37.845Z,9.25
2022-11-29T12:24:04.069Z,9.23
2022-11-29T12:26:55.917Z,9.24
2022-11-29T12:29:17.692Z,9.14
2022-11-29T12:31:43.860Z,9.02
2022-11-29T12:34:10.011Z,9.05
2022-11-29T12:36:36.192Z,9.07
2022-11-29T12:39:02.398Z,9.04
2022-11-29T12:41:35.192Z,9.03
2022-11-29T12:44:01.365Z,9.08
2022-11-29T12:46:27.596Z,9.06
2022-11-29T12:48:53.803Z,9.07
2022-11-29T12:51:20.224Z,9.08
2022-11-29T12:53:46.409Z,9.05
2022-11-29T12:56:12.756Z,9.03
2022-11-29T12:58:44.220Z,9.01
2022-11-29T13:01:12.279Z,9.03
2022-11-29T13:03:38.617Z,8.96
2022-11-29T13:06:06.280Z,8.92
2022-11-29T13:08:32.468Z,8.95
2022-11-29T13:10:58.893Z,8.95
2022-11-29T13:13:25.089Z,8.95
2022-11-29T13:15:51.388Z,8.98
2022-11-29T13:18:17.708Z,9.02
2022-11-29T13:20:43.900Z,9.01
2022-11-29T13:23:10.198Z,8.97
2022-11-29T13:25:36.453Z,8.98
2022-11-29T13:28:05.861Z,8.89
2022-11-29T13:30:32.229Z,8.94
2022-11-29T13:32:58.525Z,8.92
2022-11-29T13:35:25.002Z,8.94
2022-11-29T13:37:55.219Z,8.98
2022-11-29T13:40:21.896Z,8.95
2022-11-29T13:42:48.050Z,8.87
2022-11-29T13:45:14.258Z,8.86
2022-11-29T13:47:40.675Z,8.83
2022-11-29T13:50:07.143Z,8.84
2022-11-29T13:52:33.677Z,8.87
2022-11-29T13:54:59.848Z,8.85
2022-11-29T13:57:26.230Z,8.80
2022-11-29T13:59:52.655Z,8.88
2022-11-29T14:02:18.824Z,8.84
2022-11-29T14:04:45.403Z,8.76
2022-11-29T14:07:11.896Z,8.76
2022-11-29T14:09:38.128Z,8.76
2022-11-29T14:12:04.332Z,8.81
2022-11-29T14:14:30.535Z,8.75
2022-11-29T14:16:56.961Z,8.78
2022-11-29T14:19:23.362Z,8.79
2022-11-29T14:21:49.551Z,8.84
2022-11-29T14:24:15.909Z,8.80
2022-11-29T14:26:42.140Z,8.74
2022-11-29T14:29:08.337Z,8.78
2022-11-29T14:31:34.619Z,8.72
2022-11-29T14:34:04.884Z,8.75
2022-11-29T14:36:31.054Z,8.70
2022-11-29T14:38:57.227Z,8.76
2022-11-29T14:41:23.410Z,8.65
2022-11-29T14:43:49.639Z,8.65
2022-11-29T14:46:15.951Z,8.65
2022-11-29T14:48:42.334Z,8.63
2022-11-29T14:51:08.565Z,8.64
2022-11-29T14:53:34.913Z,8.58
2022-11-29T14:56:01.165Z,8.57
2022-11-29T14:58:27.361Z,8.54
2022-11-29T15:00:56.144Z,8.49
2022-11-29T15:03:22.504Z,8.54
2022-11-29T15:05:48.747Z,8.56
2022-11-29T15:08:16.904Z,8.53
2022-11-29T15:10:43.138Z,8.51
2022-11-29T15:13:09.529Z,8.50
2022-11-29T15:15:35.891Z,8.50
2022-11-29T15:18:02.074Z,8.53
2022-11-29T15:20:28.269Z,8.51
2022-11-29T15:22:54.602Z,8.53
2022-11-29T15:25:20.976Z,8.50
2022-11-29T15:27:47.238Z,8.47
2022-11-29T15:30:19.575Z,8.49
2022-11-29T15:32:45.757Z,8.51
2022-11-29T15:35:12.016Z,8.47
2022-11-29T15:37:44.246Z,8.46
2022-11-29T15:40:10.701Z,8.51
2022-11-29T15:42:36.885Z,8.45
2022-11-29T15:45:03.106Z,8.44
2022-11-29T15:47:29.317Z,8.44
2022-11-29T15:49:58.806Z,8.43
2022-11-29T15:52:24.979Z,8.40
2022-11-29T15:54:51.186Z,8.38
2022-11-29T15:57:17.311Z,8.38
2022-11-29T15:59:43.554Z,8.37
2022-11-29T16:02:09.748Z,8.37
2022-11-29T16:04:35.978Z,8.36
2022-11-29T16:07:05.250Z,8.36
2022-11-29T16:09:31.426Z,8.36
2022-11-29T16:11:57.746Z,8.34
2022-11-29T16:14:23.971Z,8.33
2022-11-29T16:16:50.262Z,8.34
2022-11-29T16:19:16.481Z,8.41
2022-11-29T16:21:42.732Z,8.36
2022-11-29T16:24:08.882Z,8.41
2022-11-29T16:26:35.394Z,8.38
2022-11-29T16:29:01.576Z,8.40
2022-11-29T16:31:27.964Z,8.36
2022-11-29T16:33:56.252Z,8.35
2022-11-29T16:36:22.446Z,8.35
2022-11-29T16:38:48.749Z,8.33
2022-11-29T16:41:14.950Z,8.38
2022-11-29T16:43:41.204Z,8.36
2022-11-29T16:46:07.542Z,8.34
2022-11-29T16:48:33.790Z,8.35
2022-11-29T16:50:59.963Z,8.34
2022-11-29T16:53:26.115Z,8.31
2022-11-29T16:55:52.286Z,8.34
2022-11-29T16:58:18.523Z,8.35
2022-11-29T17:00:44.736Z,8.34
2022-11-29T17:03:10.892Z,8.31
2022-11-29T17:05:41.609Z,8.32
2022-11-29T17:08:10.622Z,8.30
2022-11-29T17:10:36.774Z,8.29
2022-11-29T17:13:02.902Z,8.27
2022-11-29T17:15:29.022Z,8.25
2022-11-29T17:17:55.179Z,8.22
2022-11-29T17:20:21.364Z,8.20
2022-11-29T17:22:47.489Z,8.17
2022-11-29T17:25:13.662Z,8.19
2022-11-29T17:27:39.870Z,8.20
2022-11-29T17:30:06.067Z,8.15
2022-11-29T17:32:32.185Z,8.16
2022-11-29T17:34:58.574Z,8.21
2022-11-29T17:37:24.799Z,8.20
2022-11-29T17:39:50.979Z,8.21
2022-11-29T17:42:17.325Z,8.17
2022-11-29T17:44:43.431Z,8.15
2022-11-29T17:47:09.584Z,8.13
2022-11-29T17:49:35.706Z,8.11
2022-11-29T17:52:01.827Z,8.09
2022-11-29T17:54:27.990Z,8.13
2022-11-29T17:56:54.116Z,8.12
2022-11-29T17:59:20.303Z,8.10
2022-11-29T18:01:46.524Z,8.10
2022-11-29T18:04:12.703Z,8.12
2022-11-29T18:06:38.876Z,8.10
2022-11-29T18:09:05.050Z,8.10
2022-11-29T18:11:31.229Z,8.10
2022-11-29T18:13:57.452Z,8.09
2022-11-29T18:16:23.714Z,8.12
2022-11-29T18:18:49.899Z,8.12
2022-11-29T18:21:16.127Z,8.14
2022-11-29T18:23:42.287Z,8.10
2022-11-29T18:26:08.431Z,8.10
2022-11-29T18:28:34.559Z,8.09
2022-11-29T18:31:00.812Z,8.06
2022-11-29T18:33:26.956Z,8.04
2022-11-29T18:35:53.168Z,8.05
2022-11-29T18:38:19.402Z,8.05
2022-11-29T18:40:45.534Z,8.09
2022-11-29T18:43:11.676Z,8.11
2022-11-29T18:45:38.074Z,8.08
2022-11-29T18:48:04.371Z,8.08
2022-11-29T18:50:30.531Z,8.09
2022-11-29T18:52:56.673Z,8.04
2022-11-29T18:55:22.792Z,8.04
2022-11-29T18:57:49.006Z,8.02
2022-11-29T19:00:15.218Z,7.99
2022-11-29T19:02:41.430Z,7.94
2022-11-29T19:05:07.612Z,8.00
2022-11-29T19:07:33.842Z,7.93
2022-11-29T19:10:00.038Z,7.93
2022-11-29T19:12:26.185Z,7.88
2022-11-29T19:14:52.447Z,7.86
2022-11-29T19:17:18.788Z,7.86
2022-11-29T19:19:45.238Z,7.85
2022-11-29T19:22:11.659Z,7.87
2022-11-29T19:24:37.835Z,7.85
2022-11-29T19:27:03.987Z,7.83
2022-11-29T19:29:32.034Z,7.86
2022-11-29T19:32:00.203Z,7.83
2022-11-29T19:34:26.385Z,7.81
2022-11-29T19:36:52.570Z,7.74
2022-11-29T19:39:21.801Z,7.72
2022-11-29T19:41:48.016Z,7.70
2022-11-29T19:44:14.181Z,7.65
2022-11-29T19:46:40.410Z,7.61
2022-11-29T19:49:06.605Z,7.56
2022-11-29T19:51:32.783Z,7.52
2022-11-29T19:53:58.964Z,7.54
2022-11-29T19:56:25.158Z,7.48
2022-11-29T19:58:51.319Z,7.43
2022-11-29T20:01:17.516Z,7.38
2022-11-29T20:03:43.742Z,7.40
2022-11-29T20:06:09.913Z,7.39
2022-11-29T20:08:36.079Z,7.30
2022-11-29T20:11:02.264Z,7.26
2022-11-29T20:13:28.428Z,7.25
2022-11-29T20:15:54.662Z,7.19
2022-11-29T20:18:20.831Z,7.18
2022-11-29T20:20:47.051Z,7.13
2022-11-29T20:23:13.239Z,7.16
2022-11-29T20:25:39.424Z,7.17
2022-11-29T20:28:05.579Z,7.14
2022-11-29T20:30:31.792Z,7.12
2022-11-29T20:32:57.975Z,7.11
2022-11-29T20:35:24.099Z,7.06
2022-11-29T20:37:50.274Z,7.03
2022-11-29T20:40:16.404Z,7.06
2022-11-29T20:42:42.588Z,7.12
2022-11-29T20:45:08.743Z,7.05
2022-11-29T20:47:34.958Z,7.00
2022-11-29T20:50:01.170Z,6.95
2022-11-29T20:52:27.341Z,6.85
2022-11-29T20:54:53.511Z,6.78
2022-11-29T20:57:19.708Z,6.71
2022-11-29T20:59:46.164Z,6.64
2022-11-29T21:02:12.459Z,6.58
2022-11-29T21:04:38.656Z,6.55
2022-11-29T21:07:04.854Z,6.54
2022-11-29T21:09:31.054Z,6.47
2022-11-29T21:11:57.238Z,6.44
2022-11-29T21:14:23.365Z,6.43
2022-11-29T21:16:49.566Z,6.39
2022-11-29T21:19:16.039Z,6.35
2022-11-29T21:21:42.239Z,6.36
2022-11-29T21:24:08.416Z,6.38
2022-11-29T21:26:40.048Z,6.47
2022-11-29T21:29:07.823Z,6.55
2022-11-29T21:31:39.847Z,6.60
2022-11-29T21:34:06.032Z,6.63
2022-11-29T21:36:32.180Z,6.70
2022-11-29T21:39:03.651Z,6.74
2022-11-29T21:41:31.168Z,6.79
2022-11-29T21:44:12.553Z,6.84
2022-11-29T21:46:38.752Z,6.92
2022-11-29T21:49:04.940Z,7.03
2022-11-29T21:51:31.069Z,7.09
2022-11-29T21:53:57.209Z,7.14
2022-11-29T21:56:23.445Z,7.20
2022-11-29T21:58:49.628Z,7.24
2022-11-29T22:01:15.859Z,7.30
2022-11-29T22:03:42.119Z,7.28
2022-11-29T22:06:08.240Z,7.28
2022-11-29T22:08:34.347Z,7.27
2022-11-29T22:11:00.511Z,7.26
2022-11-29T22:13:26.655Z,7.23
2022-11-29T22:15:52.851Z,7.21
2022-11-29T22:18:19.044Z,7.17
2022-11-29T22:20:45.209Z,7.14
2022-11-29T22:23:11.392Z,7.16
2022-11-29T22:25:37.540Z,7.16
2022-11-29T22:28:03.741Z,7.13
2022-11-29T22:30:29.900Z,7.11
2022-11-29T22:32:56.143Z,7.12
2022-11-29T22:35:22.313Z,7.11
2022-11-29T22:37:48.482Z,7.11
2022-11-29T22:40:14.634Z,7.10
2022-11-29T22:42:40.802Z,7.18
2022-11-29T22:45:06.985Z,7.17
2022-11-29T22:47:33.167Z,7.13
2022-11-29T22:49:59.350Z,7.14
2022-11-29T22:52:25.545Z,7.14
2022-11-29T22:54:51.717Z,7.16
2022-11-29T22:57:17.889Z,7.17
2022-11-29T22:59:44.097Z,7.16
2022-11-29T23:02:10.289Z,7.19
2022-11-29T23:04:36.444Z,7.18
2022-11-29T23:07:02.620Z,7.19
2022-11-29T23:09:28.799Z,7.17
2022-11-29T23:11:54.969Z,7.24
2022-11-29T23:14:21.111Z,7.18
2022-11-29T23:16:47.275Z,7.18
2022-11-29T23:19:13.441Z,7.20
2022-11-29T23:21:39.610Z,7.21
2022-11-29T23:24:05.734Z,7.19
2022-11-29T23:26:31.914Z,7.21
2022-11-29T23:28:58.115Z,7.23
2022-11-29T23:31:24.385Z,7.21
2022-11-29T23:33:50.607Z,7.19
2022-11-29T23:36:16.801Z,7.20
2022-11-29T23:38:42.917Z,7.21
2022-11-29T23:41:09.078Z,7.20
2022-11-29T23:43:35.238Z,7.25
2022-11-29T23:46:01.401Z,7.21
2022-11-29T23:48:27.627Z,7.23
2022-11-29T23:50:53.744Z,7.23
2022-11-29T23:53:19.932Z,7.24
2022-11-29T23:55:46.084Z,7.25
2022-11-29T23:58:12.215Z,7.21
